Time;durP1;ratioP1;P1;durP2;ratioP2;P2;SDS_P1;SDS_P2;PMS_P1;PMS_P2;Temp;Humidity;BMP_temperature;BMP_pressure;BME280_temperature;BME280_humidity;BME280_pressure;Samples;Min_cycle;Max_cycle;Signal;HPM_P1;HPM_P2
2022/09/12 00:01:59;;;;;;;80.28;35.05;;;;;;;12.81;100.00;101406.72;5022840;28;20081;-75
2022/09/12 00:04:32;;;;;;;71.30;32.45;;;;;;;12.86;100.00;101398.97;5031576;28;20101;-75
2022/09/12 00:06:59;;;;;;;79.20;34.67;;;;;;;12.78;100.00;101398.72;5022641;28;20038;-75
2022/09/12 00:09:24;;;;;;;84.00;35.60;;;;;;;12.78;100.00;101398.72;5021932;28;20048;-74
2022/09/12 00:11:53;;;;;;;84.30;37.22;;;;;;;12.73;100.00;101395.47;5021957;28;20033;-75
2022/09/12 00:14:20;;;;;;;96.38;37.50;;;;;;;12.69;100.00;101386.56;5022741;28;20137;-75
2022/09/12 00:16:48;;;;;;;81.32;37.50;;;;;;;12.72;100.00;101394.56;5029547;28;20040;-74
2022/09/12 00:19:19;;;;;;;86.03;36.67;;;;;;;12.75;100.00;101397.06;4999919;28;20043;-74
2022/09/12 00:21:44;;;;;;;87.45;36.97;;;;;;;12.66;100.00;101392.31;5014148;28;20046;-74
2022/09/12 00:24:11;;;;;;;88.20;36.83;;;;;;;12.64;100.00;101380.56;5016225;28;20385;-74
2022/09/12 00:26:39;;;;;;;73.57;32.70;;;;;;;12.57;100.00;101382.91;5045820;28;20030;-74
2022/09/12 00:29:06;;;;;;;74.72;30.48;;;;;;;12.49;100.00;101391.78;5022420;28;20033;-75
2022/09/12 00:31:37;;;;;;;71.55;31.83;;;;;;;12.44;100.00;101382.13;5030960;28;20052;-75
2022/09/12 00:34:04;;;;;;;87.30;37.08;;;;;;;12.39;100.00;101378.88;5025727;28;20132;-74
2022/09/12 00:36:30;;;;;;;98.82;41.95;;;;;;;12.47;100.00;101371.78;5043825;28;20120;-76
2022/09/12 00:38:56;;;;;;;98.15;40.00;;;;;;;12.52;100.00;101371.44;5030740;28;20161;-74
2022/09/12 00:41:24;;;;;;;97.35;37.78;;;;;;;12.44;100.00;101365.66;5019562;28;20037;-75
2022/09/12 00:43:53;;;;;;;89.57;35.92;;;;;;;12.40;100.00;101362.28;5030776;28;20137;-75
2022/09/12 00:46:50;;;;;;;118.88;45.38;;;;;;;12.50;100.00;101359.69;5016133;28;21872;-74
2022/09/12 00:49:17;;;;;;;119.63;45.03;;;;;;;12.36;100.00;101358.00;5015908;28;20046;-75
2022/09/12 00:51:59;;;;;;;132.50;49.55;;;;;;;12.39;100.00;101357.78;5018260;28;20034;-75
2022/09/12 00:54:35;;;;;;;103.80;42.80;;;;;;;12.40;100.00;101353.19;5029778;28;20029;-75
2022/09/12 00:57:05;;;;;;;97.82;41.90;;;;;;;12.46;100.00;101363.66;5032119;28;20079;-75
2022/09/12 00:59:43;;;;;;;92.32;40.30;;;;;;;12.48;100.00;101361.69;5029327;28;20509;-75
2022/09/12 01:02:13;;;;;;;107.50;40.50;;;;;;;12.52;100.00;101356.81;5024637;28;20120;-75
2022/09/12 01:04:46;;;;;;;100.78;43.65;;;;;;;12.56;100.00;101356.47;5013963;28;20053;-74
2022/09/12 01:07:14;;;;;;;102.45;42.97;;;;;;;12.55;100.00;101351.09;5021221;28;20556;-75
2022/09/12 01:09:42;;;;;;;114.43;42.38;;;;;;;12.50;100.00;101346.81;5019286;28;20033;-75
2022/09/12 01:12:13;;;;;;;116.35;43.58;;;;;;;12.46;100.00;101350.81;5034206;28;20025;-75
2022/09/12 01:14:44;;;;;;;111.93;41.60;;;;;;;12.50;100.00;101351.44;5042912;28;20030;-75
2022/09/12 01:17:13;;;;;;;93.28;39.65;;;;;;;12.42;100.00;101345.69;5023813;28;20121;-75
2022/09/12 01:20:23;;;;;;;90.75;38.85;;;;;;;12.36;100.00;101351.66;5027633;28;20034;-75
2022/09/12 01:23:23;;;;;;;96.18;39.58;;;;;;;12.31;100.00;101361.16;5032749;28;20092;-75
2022/09/12 01:26:08;;;;;;;96.68;37.67;;;;;;;12.20;100.00;101347.38;5022527;28;20025;-75
2022/09/12 01:29:26;;;;;;;103.88;37.03;;;;;;;12.09;100.00;101339.97;5023541;28;20520;-75
2022/09/12 01:32:18;;;;;;;86.03;35.88;;;;;;;12.09;100.00;101345.47;5032633;28;20038;-75
2022/09/12 01:35:01;;;;;;;88.13;36.70;;;;;;;12.17;100.00;101349.47;5022981;28;20115;-76
2022/09/12 01:37:53;;;;;;;89.68;35.92;;;;;;;12.13;100.00;101337.84;5024651;28;20044;-75
2022/09/12 01:40:33;;;;;;;81.45;35.97;;;;;;;12.04;100.00;101331.22;5028089;28;20101;-75
2022/09/12 01:43:17;;;;;;;92.63;35.53;;;;;;;12.05;100.00;101333.00;5022798;28;20042;-74
2022/09/12 01:45:51;;;;;;;75.07;33.88;;;;;;;12.02;100.00;101335.06;5015940;28;20077;-75
2022/09/12 01:48:25;;;;;;;69.80;28.98;;;;;;;11.90;100.00;101325.91;5020376;28;20071;-75
2022/09/12 01:51:07;;;;;;;58.03;26.02;;;;;;;11.84;100.00;101324.50;5009477;28;20120;-75
2022/09/12 01:53:42;;;;;;;55.40;24.10;;;;;;;11.74;100.00;101318.84;5032865;28;20025;-76
2022/09/12 01:56:14;;;;;;;79.55;31.40;;;;;;;11.75;100.00;101322.47;5026922;28;20045;-75
2022/09/12 01:59:09;;;;;;;69.53;29.75;;;;;;;11.91;100.00;101312.09;5028162;28;20531;-75
2022/09/12 02:01:45;;;;;;;80.05;32.80;;;;;;;11.99;100.00;101310.63;5032550;28;20045;-75
2022/09/12 02:04:46;;;;;;;78.38;30.40;;;;;;;11.90;100.00;101296.59;5018588;28;20474;-75
2022/09/12 02:07:21;;;;;;;88.70;34.03;;;;;;;12.00;100.00;101305.00;5029822;28;20022;-75
2022/09/12 02:09:55;;;;;;;86.18;36.92;;;;;;;12.01;100.00;101300.41;5028192;28;20037;-76
2022/09/12 02:12:30;;;;;;;96.55;37.25;;;;;;;11.95;100.00;101294.41;5000751;28;20061;-75
2022/09/12 02:15:02;;;;;;;94.72;38.80;;;;;;;11.93;100.00;101281.78;5042629;28;20477;-76
2022/09/12 02:17:38;;;;;;;93.97;38.38;;;;;;;12.00;100.00;101290.41;5025141;28;20481;-75
2022/09/12 02:20:16;;;;;;;102.63;39.13;;;;;;;11.99;100.00;101289.56;5014404;28;20038;-75
2022/09/12 02:22:44;;;;;;;99.80;39.08;;;;;;;11.97;100.00;101297.03;5020254;28;20056;-74
2022/09/12 02:25:14;;;;;;;88.10;35.05;;;;;;;11.92;100.00;101291.00;5015722;28;20029;-74
2022/09/12 02:27:46;;;;;;;81.78;32.05;;;;;;;11.87;100.00;101294.09;5028152;28;20056;-74
2022/09/12 02:30:22;;;;;;;85.93;33.78;;;;;;;11.88;100.00;101287.59;5018582;28;20596;-75
2022/09/12 02:33:01;;;;;;;81.78;31.52;;;;;;;11.73;100.00;101297.03;5006121;28;20029;-75
2022/09/12 02:35:33;;;;;;;89.15;35.88;;;;;;;11.90;100.00;101288.38;5007900;28;20065;-74
2022/09/12 02:38:10;;;;;;;85.68;33.53;;;;;;;11.96;100.00;101295.28;4996109;28;20516;-76
2022/09/12 02:40:37;;;;;;;88.82;35.95;;;;;;;11.88;100.00;101292.22;5028429;28;20034;-75
2022/09/12 02:43:06;;;;;;;85.65;34.85;;;;;;;12.02;100.00;101291.16;5021139;28;20042;-75
2022/09/12 02:45:36;;;;;;;103.15;37.22;;;;;;;12.03;100.00;101299.28;5028483;28;20038;-75
2022/09/12 02:48:10;;;;;;;73.57;31.98;;;;;;;11.91;100.00;101295.63;5031750;28;20619;-75
2022/09/12 02:50:36;;;;;;;61.83;28.55;;;;;;;11.85;100.00;101292.47;5012249;28;20026;-75
2022/09/12 02:53:04;;;;;;;79.65;32.50;;;;;;;11.82;100.00;101290.81;4996764;28;20049;-75
2022/09/12 02:55:38;;;;;;;79.07;35.53;;;;;;;11.85;100.00;101293.31;5014577;28;20034;-75
2022/09/12 02:58:17;;;;;;;63.63;26.98;;;;;;;11.79;100.00;101291.06;5027571;28;20033;-75
2022/09/12 03:01:06;;;;;;;66.45;28.92;;;;;;;11.78;100.00;101292.91;5027198;28;20072;-75
2022/09/12 03:03:41;;;;;;;81.80;30.75;;;;;;;11.74;100.00;101290.53;5020983;28;20033;-75
2022/09/12 03:06:21;;;;;;;72.00;27.88;;;;;;;11.69;100.00;101284.53;5015952;28;20022;-75
2022/09/12 03:08:54;;;;;;;72.53;29.67;;;;;;;11.75;100.00;101289.53;5022963;28;20083;-75
2022/09/12 03:11:36;;;;;;;69.97;30.15;;;;;;;11.73;100.00;101283.31;5023820;28;20065;-75
2022/09/12 03:14:31;;;;;;;81.85;31.17;;;;;;;11.73;100.00;101278.69;5019446;28;20045;-75
2022/09/12 03:17:09;;;;;;;67.65;28.17;;;;;;;11.71;100.00;101277.09;5024136;28;20030;-75
2022/09/12 03:19:59;;;;;;;76.68;31.50;;;;;;;11.75;100.00;101273.94;5025323;28;20036;-76
2022/09/12 03:22:44;;;;;;;86.75;31.98;;;;;;;11.66;100.00;101284.75;5021356;28;20072;-75
2022/09/12 03:25:17;;;;;;;79.43;32.20;;;;;;;11.70;100.00;101280.81;5021217;28;20458;-75
2022/09/12 03:28:00;;;;;;;92.03;33.38;;;;;;;11.72;100.00;101276.06;5026526;28;20025;-75
2022/09/12 03:30:27;;;;;;;86.28;33.35;;;;;;;11.73;100.00;101269.59;5026642;28;20084;-75
2022/09/12 03:32:58;;;;;;;92.38;34.42;;;;;;;11.80;100.00;101268.13;5013031;28;20037;-75
2022/09/12 03:35:25;;;;;;;84.72;32.72;;;;;;;11.73;100.00;101261.38;5013956;28;20478;-75
2022/09/12 03:37:56;;;;;;;78.13;31.67;;;;;;;11.72;100.00;101267.84;5025199;28;20038;-75
2022/09/12 03:40:25;;;;;;;93.00;34.15;;;;;;;11.65;100.00;101261.94;5031183;28;20076;-75
2022/09/12 03:42:55;;;;;;;112.78;37.15;;;;;;;11.69;100.00;101259.84;5000428;28;20052;-75
2022/09/12 03:45:21;;;;;;;111.82;40.30;;;;;;;11.74;100.00;101258.50;5042628;28;20034;-75
2022/09/12 03:47:49;;;;;;;99.80;33.83;;;;;;;11.63;100.00;101252.09;5017436;28;20034;-75
2022/09/12 03:50:14;;;;;;;97.65;33.60;;;;;;;11.63;100.00;101261.19;5022091;28;20076;-75
2022/09/12 03:52:42;;;;;;;83.68;32.33;;;;;;;11.71;100.00;101263.38;5020113;28;20060;-75
2022/09/12 03:55:13;;;;;;;81.43;31.40;;;;;;;11.72;100.00;101256.88;5023985;28;20033;-75
2022/09/12 03:57:39;;;;;;;100.28;35.17;;;;;;;11.75;100.00;101253.88;5025573;28;20056;-75
2022/09/12 04:00:09;;;;;;;103.15;36.38;;;;;;;11.76;100.00;101251.03;5021842;28;20029;-75
2022/09/12 04:02:36;;;;;;;124.95;42.88;;;;;;;11.89;100.00;101250.94;5028563;28;20367;-75
2022/09/12 04:05:03;;;;;;;107.90;37.50;;;;;;;11.83;100.00;101245.94;5017826;28;20040;-75
2022/09/12 04:07:35;;;;;;;89.85;33.63;;;;;;;11.91;100.00;101253.56;5030681;28;20435;-79
2022/09/12 04:10:03;;;;;;;128.88;41.00;;;;;;;11.92;100.00;101258.97;5035366;28;20373;-76
2022/09/12 04:12:31;;;;;;;138.07;42.58;;;;;;;11.97;100.00;101249.50;5028182;28;20046;-76
2022/09/12 04:14:59;;;;;;;143.55;45.72;;;;;;;12.02;100.00;101244.50;5048157;28;20513;-76
2022/09/12 04:17:26;;;;;;;134.45;44.22;;;;;;;11.98;100.00;101237.53;5026702;28;20420;-76
2022/09/12 04:19:52;;;;;;;151.38;46.95;;;;;;;11.99;100.00;101245.63;5003602;28;20049;-76
2022/09/12 04:22:23;;;;;;;142.35;45.28;;;;;;;12.04;100.00;101237.91;5008309;28;20038;-76
2022/09/12 04:24:51;;;;;;;138.82;43.70;;;;;;;12.10;100.00;101237.44;5005634;28;20056;-75
2022/09/12 04:27:21;;;;;;;159.23;48.55;;;;;;;12.05;100.00;101242.41;5027487;28;20045;-76
2022/09/12 04:29:52;;;;;;;154.27;39.03;;;;;;;11.94;100.00;101240.50;5012425;28;20045;-76
2022/09/12 04:32:21;;;;;;;105.47;35.10;;;;;;;11.84;100.00;101241.31;5032312;28;20541;-75
2022/09/12 04:34:49;;;;;;;96.22;33.72;;;;;;;11.74;100.00;101235.66;5031234;28;20417;-75
2022/09/12 04:37:17;;;;;;;115.18;35.50;;;;;;;11.79;100.00;101233.47;5032854;28;20481;-76
2022/09/12 04:39:50;;;;;;;106.85;35.55;;;;;;;11.69;100.00;101221.44;5020506;28;20037;-76
2022/09/12 04:42:20;;;;;;;95.65;34.03;;;;;;;11.65;100.00;101233.66;5031685;28;20068;-76
2022/09/12 04:44:52;;;;;;;108.43;36.38;;;;;;;11.63;100.00;101227.44;5018840;28;20040;-76
2022/09/12 04:47:18;;;;;;;108.53;37.30;;;;;;;11.67;100.00;101237.16;5013806;28;20061;-76
2022/09/12 04:49:44;;;;;;;112.15;35.78;;;;;;;11.56;100.00;101230.63;5023108;28;20076;-76
2022/09/12 04:52:10;;;;;;;133.90;40.35;;;;;;;11.56;100.00;101225.16;4996437;28;20038;-76
2022/09/12 04:54:36;;;;;;;127.80;39.30;;;;;;;11.62;100.00;101228.41;5025009;28;20029;-76
2022/09/12 04:57:04;;;;;;;136.73;41.00;;;;;;;11.61;100.00;101230.28;5049020;28;20540;-77
2022/09/12 04:59:37;;;;;;;123.45;39.88;;;;;;;11.66;100.00;101229.91;5004219;28;20076;-76
2022/09/12 05:02:06;;;;;;;135.70;41.83;;;;;;;11.66;100.00;101228.06;5017778;28;20033;-75
2022/09/12 05:04:34;;;;;;;131.38;40.80;;;;;;;11.67;100.00;101227.03;5029467;28;20461;-76
2022/09/12 05:07:00;;;;;;;151.15;44.53;;;;;;;11.72;100.00;101227.59;5008345;28;20053;-76
2022/09/12 05:09:28;;;;;;;146.75;44.03;;;;;;;11.72;100.00;101219.34;5002700;28;20423;-76
2022/09/12 05:11:54;;;;;;;132.00;40.17;;;;;;;11.68;100.00;101219.72;5022975;28;20065;-76
2022/09/12 05:14:31;;;;;;;136.75;41.42;;;;;;;11.72;100.00;101223.94;5014848;28;20636;-76
2022/09/12 05:17:00;;;;;;;124.68;38.22;;;;;;;11.75;100.00;101227.31;5002117;28;20049;-76
2022/09/12 05:19:27;;;;;;;131.40;39.08;;;;;;;11.79;100.00;101230.72;5029179;28;20060;-76
2022/09/12 05:21:55;;;;;;;144.07;39.65;;;;;;;11.82;100.00;101240.56;5034045;28;20393;-76
2022/09/12 05:24:24;;;;;;;129.27;42.63;;;;;;;11.87;100.00;101239.22;5020754;28;20018;-76
2022/09/12 05:26:50;;;;;;;133.07;42.53;;;;;;;11.88;100.00;101229.13;5015551;28;20230;-76
2022/09/12 05:29:16;;;;;;;146.90;43.40;;;;;;;11.90;100.00;101232.59;5021507;28;20400;-77
2022/09/12 05:31:48;;;;;;;131.00;42.60;;;;;;;11.90;100.00;101241.72;5024003;28;20067;-77
2022/09/12 05:34:20;;;;;;;151.13;45.80;;;;;;;12.01;100.00;101242.78;5038329;28;20712;-77
2022/09/12 05:36:45;;;;;;;160.02;46.42;;;;;;;12.06;100.00;101240.53;5033220;28;20042;-77
2022/09/12 05:39:12;;;;;;;158.65;49.33;;;;;;;12.10;100.00;101236.53;5029609;28;20071;-77
2022/09/12 05:41:37;;;;;;;163.20;49.20;;;;;;;12.17;100.00;101237.81;5031258;28;20120;-77
2022/09/12 05:44:11;;;;;;;175.55;50.80;;;;;;;12.23;100.00;101231.84;5041498;28;20401;-77
2022/09/12 05:46:40;;;;;;;158.85;49.00;;;;;;;12.34;100.00;101232.84;5024124;28;20026;-76
2022/09/12 05:49:12;;;;;;;170.60;48.67;;;;;;;12.35;100.00;101229.97;5032527;28;20086;-77
2022/09/12 05:51:42;;;;;;;157.40;49.25;;;;;;;12.33;100.00;101245.72;5034126;28;20400;-77
2022/09/12 05:54:14;;;;;;;158.27;46.38;;;;;;;12.34;100.00;101244.69;5028986;28;20049;-77
2022/09/12 05:56:41;;;;;;;142.93;46.53;;;;;;;12.44;100.00;101244.81;5015318;28;20033;-76
2022/09/12 05:59:15;;;;;;;159.45;48.92;;;;;;;12.49;100.00;101237.06;5014568;28;20120;-77
2022/09/12 06:01:41;;;;;;;145.17;47.67;;;;;;;12.52;100.00;101239.59;5000545;28;20030;-77
2022/09/12 06:04:07;;;;;;;140.65;46.47;;;;;;;12.59;100.00;101250.94;5015369;28;20324;-77
2022/09/12 06:06:37;;;;;;;153.18;47.70;;;;;;;12.55;100.00;101244.81;5016287;28;20478;-78
2022/09/12 06:09:09;;;;;;;177.63;53.88;;;;;;;12.68;100.00;101247.44;5017700;28;20156;-77
2022/09/12 06:11:36;;;;;;;176.02;52.15;;;;;;;12.72;100.00;101250.81;5033103;28;20477;-77
2022/09/12 06:14:11;;;;;;;181.85;53.38;;;;;;;12.77;100.00;101254.06;5028653;28;20118;-78
2022/09/12 06:16:47;;;;;;;175.50;52.40;;;;;;;12.88;100.00;101254.06;5028737;28;20038;-79
2022/09/12 06:19:22;;;;;;;179.38;52.25;;;;;;;12.91;100.00;101251.06;5018871;28;20482;-79
2022/09/12 06:21:48;;;;;;;171.25;52.92;;;;;;;12.91;100.00;101252.94;5030321;28;20038;-79
2022/09/12 06:24:17;;;;;;;166.90;50.17;;;;;;;13.03;100.00;101252.75;5027292;28;20042;-79
2022/09/12 06:26:46;;;;;;;166.05;52.13;;;;;;;13.01;100.00;101252.03;5019891;28;20037;-79
2022/09/12 06:29:18;;;;;;;173.18;52.90;;;;;;;13.11;100.00;101254.88;5011085;28;21063;-78
2022/09/12 06:31:44;;;;;;;176.65;51.00;;;;;;;13.17;100.00;101259.00;4994127;28;20057;-79
2022/09/12 06:34:20;;;;;;;163.00;51.50;;;;;;;13.27;100.00;101250.88;5010044;28;20029;-79
2022/09/12 06:36:48;;;;;;;186.80;54.88;;;;;;;13.17;100.00;101259.00;5009699;28;20080;-79
2022/09/12 06:39:19;;;;;;;185.68;56.33;;;;;;;13.14;100.00;101254.63;5014700;28;20033;-79
2022/09/12 06:41:47;;;;;;;190.88;55.30;;;;;;;13.18;100.00;101260.75;5025319;28;20033;-78
2022/09/12 06:44:21;;;;;;;193.63;58.97;;;;;;;13.22;100.00;101263.09;5033941;28;20049;-79
2022/09/12 06:46:47;;;;;;;215.77;65.00;;;;;;;13.19;100.00;101262.50;5019891;28;20029;-78
2022/09/12 06:49:16;;;;;;;195.90;62.55;;;;;;;13.21;100.00;101255.84;5038124;28;20029;-78
2022/09/12 06:51:42;;;;;;;225.05;66.03;;;;;;;13.21;100.00;101253.09;5020660;28;20033;-78
2022/09/12 06:54:18;;;;;;;196.07;63.75;;;;;;;13.14;100.00;101253.78;5053421;28;20086;-78
2022/09/12 06:56:48;;;;;;;210.77;64.00;;;;;;;13.18;100.00;101244.25;5021124;28;20040;-78
2022/09/12 06:59:14;;;;;;;210.90;66.82;;;;;;;13.16;100.00;101241.63;5018122;28;20041;-79
2022/09/12 07:01:41;;;;;;;215.07;65.55;;;;;;;13.22;100.00;101245.75;5018858;28;20087;-78
2022/09/12 07:04:08;;;;;;;214.93;66.93;;;;;;;13.26;100.00;101241.72;5000025;28;20036;-78
2022/09/12 07:06:39;;;;;;;206.75;67.50;;;;;;;13.30;100.00;101243.22;5000983;28;20065;-78
2022/09/12 07:09:11;;;;;;;211.98;69.82;;;;;;;13.38;100.00;101242.59;5032880;28;20064;-78
2022/09/12 07:11:38;;;;;;;219.48;72.15;;;;;;;13.47;100.00;101240.94;5016098;28;20432;-77
2022/09/12 07:14:08;;;;;;;202.95;71.00;;;;;;;13.53;100.00;101241.28;5002269;28;20026;-79
2022/09/12 07:16:42;;;;;;;226.25;73.22;;;;;;;13.71;100.00;101252.59;5018181;28;20044;-78
2022/09/12 07:19:13;;;;;;;193.45;65.78;;;;;;;13.72;100.00;101236.94;5016559;28;20531;-79
2022/09/12 07:21:40;;;;;;;207.63;65.18;;;;;;;13.82;100.00;101239.78;5026983;28;20520;-78
2022/09/12 07:24:09;;;;;;;184.43;63.95;;;;;;;14.04;100.00;101241.56;5017365;28;20026;-78
2022/09/12 07:26:34;;;;;;;195.43;64.07;;;;;;;14.24;100.00;101242.53;5018709;28;20112;-77
2022/09/12 07:29:04;;;;;;;171.38;59.20;;;;;;;14.51;100.00;101252.97;4998545;28;20065;-78
2022/09/12 07:31:32;;;;;;;175.48;61.17;;;;;;;14.81;100.00;101245.75;5017528;28;20026;-78
2022/09/12 07:33:59;;;;;;;162.98;56.10;;;;;;;15.14;100.00;101251.94;5031665;28;20033;-77
2022/09/12 07:36:25;;;;;;;178.52;57.63;;;;;;;15.21;100.00;101248.44;5031784;28;20037;-78
2022/09/12 07:38:55;;;;;;;157.30;57.75;;;;;;;15.25;100.00;101252.69;5017121;28;20485;-78
2022/09/12 07:41:25;;;;;;;157.73;57.90;;;;;;;15.29;100.00;101245.00;5029331;28;20397;-79
2022/09/12 07:43:57;;;;;;;165.80;58.53;;;;;;;15.56;100.00;101240.66;5037074;28;20037;-78
2022/09/12 07:46:25;;;;;;;156.77;57.92;;;;;;;15.66;100.00;101236.03;5035317;28;20028;-78
2022/09/12 07:48:53;;;;;;;161.80;58.17;;;;;;;15.58;100.00;101242.25;5036940;28;20030;-78
2022/09/12 07:51:23;;;;;;;153.55;59.42;;;;;;;15.44;100.00;101237.16;5019140;28;20030;-78
2022/09/12 07:53:53;;;;;;;164.77;61.35;;;;;;;15.47;100.00;101238.78;5016841;28;20124;-78
2022/09/12 07:56:19;;;;;;;160.75;59.75;;;;;;;16.05;100.00;101233.25;5015658;28;20049;-78
2022/09/12 07:58:45;;;;;;;163.35;60.78;;;;;;;16.49;100.00;101239.09;4998679;28;20092;-78
2022/09/12 08:01:22;;;;;;;148.95;57.85;;;;;;;16.93;100.00;101232.09;5040989;28;20080;-78
2022/09/12 08:03:53;;;;;;;137.02;51.17;;;;;;;17.44;100.00;101239.78;5020726;28;20030;-78
2022/09/12 08:06:22;;;;;;;138.00;54.47;;;;;;;17.53;100.00;101237.97;5034365;28;20030;-78
2022/09/12 08:08:54;;;;;;;136.48;50.40;;;;;;;17.97;100.00;101248.25;5035288;28;20136;-78
2022/09/12 08:11:23;;;;;;;129.85;52.17;;;;;;;18.12;100.00;101238.34;5034484;28;20025;-78
2022/09/12 08:13:58;;;;;;;127.25;47.38;;;;;;;18.65;100.00;101247.53;5002299;28;20057;-78
2022/09/12 08:16:28;;;;;;;118.00;49.10;;;;;;;19.07;100.00;101246.72;4992360;28;20482;-79
2022/09/12 08:19:03;;;;;;;102.60;41.78;;;;;;;19.23;100.00;101243.13;5015694;28;20034;-79
2022/09/12 08:21:31;;;;;;;96.35;41.38;;;;;;;19.19;100.00;101254.75;5016086;28;20045;-78
2022/09/12 08:24:06;;;;;;;96.05;39.95;;;;;;;19.17;100.00;101254.91;5014524;28;20022;-79
2022/09/12 08:26:33;;;;;;;88.72;40.30;;;;;;;19.59;100.00;101247.53;5014004;28;20058;-78
2022/09/12 08:29:00;;;;;;;90.38;36.60;;;;;;;20.00;100.00;101255.94;4997747;28;20117;-78
2022/09/12 08:31:35;;;;;;;86.57;37.08;;;;;;;19.52;100.00;101258.47;5014435;28;20059;-78
2022/09/12 08:34:01;;;;;;;81.73;34.03;;;;;;;20.08;100.00;101263.41;5014610;28;20065;-78
2022/09/12 08:36:27;;;;;;;86.45;37.00;;;;;;;19.80;100.00;101261.84;5014967;28;20042;-78
2022/09/12 08:38:55;;;;;;;82.93;35.70;;;;;;;19.81;100.00;101254.38;5019049;28;20045;-78
2022/09/12 08:41:47;;;;;;;83.05;35.97;;;;;;;20.30;100.00;101251.59;5018550;28;20029;-78
2022/09/12 08:44:52;;;;;;;85.03;37.55;;;;;;;20.39;100.00;101256.06;5034593;28;20042;-78
2022/09/12 08:47:45;;;;;;;85.55;37.03;;;;;;;20.57;100.00;101255.00;5032972;28;20026;-78
2022/09/12 08:50:16;;;;;;;83.50;35.05;;;;;;;20.57;100.00;101258.66;5019222;28;20436;-77
2022/09/12 08:52:48;;;;;;;78.15;35.38;;;;;;;20.96;100.00;101251.44;5016860;28;20057;-77
2022/09/12 08:55:23;;;;;;;69.55;32.50;;;;;;;20.85;100.00;101257.41;5029344;28;20037;-77
2022/09/12 08:57:52;;;;;;;72.70;32.97;;;;;;;20.69;100.00;101264.78;5015944;28;20030;-77
2022/09/12 09:00:20;;;;;;;76.35;34.55;;;;;;;20.84;100.00;101256.53;5016588;28;20048;-77
2022/09/12 09:03:11;;;;;;;70.45;32.88;;;;;;;20.90;100.00;101254.94;5031993;28;20393;-77
2022/09/12 09:05:58;;;;;;;74.50;34.05;;;;;;;21.40;100.00;101252.81;5020412;28;20030;-76
2022/09/12 09:09:02;;;;;;;69.53;31.88;;;;;;;21.80;100.00;101246.09;5016116;28;20030;-77
2022/09/12 09:11:30;;;;;;;62.95;30.65;;;;;;;21.29;100.00;101251.28;5029551;28;20453;-76
2022/09/12 09:17:10;;;;;;;67.00;31.35;;;;;;;22.16;100.00;101242.66;5031660;28;20095;-77
2022/09/12 09:19:47;;;;;;;67.10;29.00;;;;;;;22.27;100.00;101241.34;5035686;28;20101;-76
2022/09/12 09:22:22;;;;;;;60.03;30.15;;;;;;;22.00;100.00;101238.09;5030730;28;20029;-76
2022/09/12 09:24:52;;;;;;;55.05;27.77;;;;;;;22.07;100.00;101235.44;5025308;28;20065;-76
2022/09/12 09:27:48;;;;;;;53.15;27.45;;;;;;;22.09;100.00;101238.91;5041524;28;20038;-76
2022/09/12 09:30:18;;;;;;;54.22;27.40;;;;;;;22.21;100.00;101234.59;5030239;28;20104;-76
2022/09/12 09:32:54;;;;;;;55.78;27.52;;;;;;;23.00;100.00;101232.34;5017789;28;20034;-76
2022/09/12 09:35:36;;;;;;;50.10;26.38;;;;;;;22.72;100.00;101233.91;5015386;28;20057;-76
2022/09/12 09:38:23;;;;;;;47.90;25.27;;;;;;;22.90;100.00;101227.94;5032067;28;20082;-76
2022/09/12 09:41:00;;;;;;;51.13;25.33;;;;;;;22.82;100.00;101229.97;5021814;28;20038;-76
2022/09/12 09:43:27;;;;;;;51.08;24.75;;;;;;;22.91;100.00;101232.47;4997827;28;20100;-76
2022/09/12 09:45:55;;;;;;;50.65;26.80;;;;;;;22.97;100.00;101221.56;5015430;28;20034;-76
2022/09/12 09:48:29;;;;;;;53.92;25.70;;;;;;;23.51;100.00;101235.16;5014844;28;20061;-76
2022/09/12 09:50:58;;;;;;;49.38;24.92;;;;;;;23.36;100.00;101223.16;5014600;28;20045;-76
2022/09/12 09:53:37;;;;;;;47.25;23.98;;;;;;;23.35;100.00;101216.72;5013224;28;20033;-76
2022/09/12 09:56:11;;;;;;;43.28;24.42;;;;;;;23.85;100.00;101216.84;5024718;28;20026;-76
2022/09/12 09:58:38;;;;;;;40.47;21.92;;;;;;;23.45;100.00;101213.63;5014631;28;20036;-76
2022/09/12 10:01:16;;;;;;;41.50;24.70;;;;;;;23.46;100.00;101206.94;5013617;28;20048;-76
2022/09/12 10:03:51;;;;;;;36.75;18.88;;;;;;;23.14;100.00;101195.19;5014969;28;20078;-76
2022/09/12 10:06:19;;;;;;;36.28;19.00;;;;;;;23.29;100.00;101209.97;5021758;28;20026;-76
2022/09/12 10:08:48;;;;;;;33.08;19.38;;;;;;;24.21;100.00;101207.47;5014071;28;20025;-76
2022/09/12 10:11:22;;;;;;;27.35;17.45;;;;;;;24.10;100.00;101203.28;5015333;28;20061;-76
2022/09/12 10:13:55;;;;;;;34.47;18.77;;;;;;;23.69;100.00;101181.59;5017153;28;20033;-76
2022/09/12 10:16:26;;;;;;;37.35;19.27;;;;;;;24.09;100.00;101197.88;5033461;28;20037;-76
2022/09/12 10:18:57;;;;;;;34.45;17.00;;;;;;;24.02;100.00;101186.63;5029169;28;20472;-76
2022/09/12 10:21:38;;;;;;;24.58;14.50;;;;;;;24.44;100.00;101186.75;5022590;28;20122;-76
2022/09/12 10:24:21;;;;;;;21.52;15.18;;;;;;;23.68;100.00;101177.94;5027306;28;20033;-76
2022/09/12 10:27:11;;;;;;;23.40;13.43;;;;;;;23.91;100.00;101174.09;5015667;28;20112;-76
2022/09/12 10:29:44;;;;;;;36.42;18.40;;;;;;;24.46;100.00;101179.00;5013489;28;20041;-76
2022/09/12 10:32:20;;;;;;;47.42;16.63;;;;;;;24.16;100.00;101159.66;5014555;28;20075;-77
2022/09/12 10:34:55;;;;;;;27.50;16.15;;;;;;;24.33;100.00;101169.44;5013702;28;20088;-76
2022/09/12 10:37:34;;;;;;;26.73;16.77;;;;;;;23.87;100.00;101161.56;5021100;28;20025;-76
2022/09/12 10:40:05;;;;;;;25.08;14.75;;;;;;;24.17;100.00;101159.44;5018630;28;20038;-77
2022/09/12 10:42:48;;;;;;;26.35;15.52;;;;;;;24.35;100.00;101155.25;5029457;28;20045;-77
2022/09/12 10:45:18;;;;;;;27.90;17.63;;;;;;;24.00;100.00;101146.81;4997938;28;20030;-76
2022/09/12 10:47:51;;;;;;;25.05;15.45;;;;;;;24.02;100.00;101156.75;5006625;28;20481;-76
2022/09/12 10:50:34;;;;;;;23.38;13.35;;;;;;;23.89;100.00;101141.78;5012779;28;20030;-77
2022/09/12 10:53:21;;;;;;;24.50;15.02;;;;;;;23.88;100.00;101140.06;5014054;28;20030;-77
2022/09/12 10:56:01;;;;;;;25.25;12.98;;;;;;;24.03;100.00;101138.03;5018125;28;20075;-76
2022/09/12 10:59:01;;;;;;;19.88;13.15;;;;;;;23.91;100.00;101132.13;5012343;28;20511;-77
2022/09/12 11:01:33;;;;;;;22.20;11.25;;;;;;;23.91;100.00;101145.22;5011853;28;20393;-77
2022/09/12 11:04:40;;;;;;;20.75;11.70;;;;;;;23.58;100.00;101142.97;5024001;28;20026;-76
2022/09/12 11:07:42;;;;;;;15.95;9.93;;;;;;;23.95;100.00;101132.59;5026870;28;20033;-77
2022/09/12 11:10:14;;;;;;;;;;;;;;;23.61;100.00;101137.88;5028417;28;20049;-76
2022/09/12 11:13:24;;;;;;;16.30;9.95;;;;;;;23.57;100.00;101136.53;5025942;28;20004;-76
2022/09/12 11:16:09;;;;;;;14.65;7.88;;;;;;;23.62;99.71;101120.00;5008357;28;20145;-76
2022/09/12 11:19:11;;;;;;;11.57;7.50;;;;;;;23.54;100.00;101114.56;5012197;28;20109;-76
2022/09/12 11:22:28;;;;;;;16.33;9.50;;;;;;;23.80;100.00;101115.88;5013978;28;20084;-77
2022/09/12 11:25:30;;;;;;;9.27;5.57;;;;;;;23.80;100.00;101105.53;4994845;28;20087;-77
2022/09/12 11:28:26;;;;;;;12.40;6.57;;;;;;;23.90;97.15;101108.03;4990390;28;20056;-76
2022/09/12 11:31:06;;;;;;;14.68;6.60;;;;;;;23.95;100.00;101094.28;5027664;28;20481;-76
2022/09/12 11:33:42;;;;;;;9.68;7.00;;;;;;;24.02;100.00;101099.91;5026723;28;20053;-77